Terminal Aerodrome Forecast
Issued by NWS

Home | Current Version | Previous Version | Text Only | Print | Product List | Glossary On
Versions: 1 2 3 4 5 6 7 8 9 10 11 12 13 14 15 16 17 18
372
FTUS41 KCAR 212336
TAFPQI
TAF
KPQI 212336Z 2200/2224 32012G20KT P6SM SCT040 BKN070
     FM220600 33009KT P6SM SCT100
     FM221700 34008KT P6SM SCT100 BKN200=

USA.gov is the U.S. government's official web portal to all federal, state and local government web resources and services.